createdAt,value
2018-02-20T00:02:10.348Z,-4.50
2018-02-20T00:04:37.989Z,-4.40
2018-02-20T00:07:05.626Z,-4.40
2018-02-20T00:09:33.233Z,-4.40
2018-02-20T00:12:00.857Z,-4.40
2018-02-20T00:14:29.230Z,-4.30
2018-02-20T00:16:56.888Z,-4.30
2018-02-20T00:19:24.502Z,-4.20
2018-02-20T00:21:52.131Z,-4.20
2018-02-20T00:24:19.739Z,-4.10
2018-02-20T00:26:48.130Z,-4.00
2018-02-20T00:29:16.510Z,-4.00
2018-02-20T00:31:45.056Z,-4.10
2018-02-20T00:34:12.677Z,-4.10
2018-02-20T00:36:41.088Z,-4.00
2018-02-20T00:39:09.507Z,-4.10
2018-02-20T00:41:37.155Z,-4.10
2018-02-20T00:44:05.549Z,-4.10
2018-02-20T00:46:33.186Z,-4.10
2018-02-20T00:49:00.809Z,-4.10
2018-02-20T00:51:28.457Z,-4.10
2018-02-20T00:53:56.830Z,-4.10
2018-02-20T00:56:24.421Z,-4.10
2018-02-20T00:58:52.818Z,-4.00
2018-02-20T01:01:20.466Z,-4.00
2018-02-20T01:03:48.114Z,-3.90
2018-02-20T01:06:15.751Z,-3.90
2018-02-20T01:08:43.396Z,-3.90
2018-02-20T01:11:11.937Z,-3.90
2018-02-20T01:13:39.581Z,-3.90
2018-02-20T01:16:07.188Z,-3.80
2018-02-20T01:18:34.860Z,-3.80
2018-02-20T01:21:02.633Z,-3.80
2018-02-20T01:23:30.301Z,-3.90
2018-02-20T01:25:57.893Z,-3.80
2018-02-20T01:28:25.522Z,-3.80
2018-02-20T01:30:54.047Z,-3.80
2018-02-20T01:33:21.696Z,-3.80
2018-02-20T01:35:49.397Z,-3.80
2018-02-20T01:38:17.027Z,-3.80
2018-02-20T01:40:45.484Z,-3.80
2018-02-20T01:43:13.127Z,-3.80
2018-02-20T01:45:40.757Z,-3.80
2018-02-20T01:48:08.405Z,-3.80
2018-02-20T01:50:36.010Z,-3.80
2018-02-20T01:53:04.429Z,-3.70
2018-02-20T01:55:32.057Z,-3.70
2018-02-20T01:58:00.474Z,-3.70
2018-02-20T02:00:28.921Z,-3.80
2018-02-20T02:02:56.621Z,-3.80
2018-02-20T02:05:24.250Z,-3.80
2018-02-20T02:07:51.849Z,-3.80
2018-02-20T02:10:19.478Z,-3.80
2018-02-20T02:12:47.096Z,-3.80
2018-02-20T02:15:14.731Z,-3.80
2018-02-20T02:17:42.403Z,-3.80
2018-02-20T02:20:10.042Z,-3.70
2018-02-20T02:22:37.645Z,-3.80
2018-02-20T02:25:05.275Z,-3.80
2018-02-20T02:27:32.933Z,-3.80
2018-02-20T02:30:00.619Z,-3.80
2018-02-20T02:32:29.053Z,-3.90
2018-02-20T02:34:56.752Z,-3.90
2018-02-20T02:37:24.354Z,-3.80
2018-02-20T02:39:52.012Z,-3.80
2018-02-20T02:42:19.654Z,-3.80
2018-02-20T02:44:47.275Z,-3.80
2018-02-20T02:47:14.860Z,-3.80
2018-02-20T02:49:42.464Z,-3.80
2018-02-20T02:52:10.088Z,-3.80
2018-02-20T02:54:37.841Z,-3.80
2018-02-20T02:57:05.504Z,-3.80
2018-02-20T02:59:33.149Z,-3.80
2018-02-20T03:02:01.514Z,-3.80
2018-02-20T03:04:29.152Z,-3.80
2018-02-20T03:06:56.777Z,-3.70
2018-02-20T03:09:24.360Z,-3.60
2018-02-20T03:11:52.745Z,-3.50
2018-02-20T03:14:23.164Z,-3.60
2018-02-20T03:16:50.764Z,-3.50
2018-02-20T03:19:19.200Z,-3.60
2018-02-20T03:21:46.838Z,-3.60
2018-02-20T03:24:15.218Z,-3.60
2018-02-20T03:26:43.653Z,-3.50
2018-02-20T03:29:11.268Z,-3.60
2018-02-20T03:31:38.917Z,-3.60
2018-02-20T03:34:06.512Z,-3.50
2018-02-20T03:36:34.109Z,-3.50
2018-02-20T03:39:02.484Z,-3.50
2018-02-20T03:41:30.912Z,-3.50
2018-02-20T03:43:58.521Z,-3.50
2018-02-20T03:46:26.195Z,-3.30
2018-02-20T03:48:53.789Z,-3.30
2018-02-20T03:51:21.400Z,-3.20
2018-02-20T03:53:49.077Z,-3.30
2018-02-20T03:56:16.757Z,-3.30
2018-02-20T03:58:44.418Z,-3.30
2018-02-20T04:01:12.044Z,-3.40
2018-02-20T04:03:39.688Z,-3.30
2018-02-20T04:06:07.335Z,-3.30
2018-02-20T04:08:34.974Z,-3.30
2018-02-20T04:11:02.613Z,-3.20
2018-02-20T04:13:30.233Z,-3.10
2018-02-20T04:15:58.642Z,-3.00
2018-02-20T04:21:23.305Z,-3.00
2018-02-20T04:23:50.908Z,-3.10
2018-02-20T04:26:18.584Z,-3.20
2018-02-20T04:28:46.215Z,-3.20
2018-02-20T04:31:13.841Z,-3.30
2018-02-20T04:33:41.509Z,-3.30
2018-02-20T04:36:09.157Z,-3.20
2018-02-20T04:38:36.773Z,-3.20
2018-02-20T04:41:04.364Z,-3.30
2018-02-20T04:43:32.736Z,-3.40
2018-02-20T04:46:00.338Z,-3.40
2018-02-20T04:48:46.920Z,-3.40
2018-02-20T04:51:14.513Z,-3.40
2018-02-20T04:53:42.931Z,-3.30
2018-02-20T04:56:10.559Z,-3.30
2018-02-20T04:58:38.178Z,-3.30
2018-02-20T05:01:05.844Z,-3.30
2018-02-20T05:03:33.469Z,-3.40
2018-02-20T05:06:01.128Z,-3.40
2018-02-20T05:08:28.809Z,-3.40
2018-02-20T05:10:56.414Z,-3.40
2018-02-20T05:13:24.796Z,-3.40
2018-02-20T05:15:53.204Z,-3.20
2018-02-20T05:18:21.601Z,-3.10
2018-02-20T05:20:50.000Z,-3.20
2018-02-20T05:23:17.590Z,-3.20
2018-02-20T05:25:45.214Z,-3.20
2018-02-20T05:28:12.876Z,-3.20
2018-02-20T05:30:40.511Z,-3.20
2018-02-20T05:33:08.167Z,-3.30
2018-02-20T05:35:35.786Z,-3.20
2018-02-20T05:38:03.383Z,-3.20
2018-02-20T05:40:31.198Z,-3.10
2018-02-20T05:42:58.803Z,-3.10
2018-02-20T05:45:26.433Z,-3.10
2018-02-20T05:47:54.073Z,-3.10
2018-02-20T05:50:22.465Z,-3.20
2018-02-20T05:52:50.120Z,-3.20
2018-02-20T05:55:18.566Z,-3.20
2018-02-20T05:57:47.007Z,-3.20
2018-02-20T06:00:14.633Z,-3.20
2018-02-20T06:02:42.280Z,-3.10
2018-02-20T06:05:11.416Z,-3.00
2018-02-20T06:07:39.042Z,-3.00
2018-02-20T06:10:08.173Z,-3.10
2018-02-20T06:12:55.553Z,-3.10
2018-02-20T06:15:23.205Z,-3.10
2018-02-20T06:17:50.872Z,-3.10
2018-02-20T06:23:25.056Z,-3.10
2018-02-20T06:25:52.721Z,-3.00
2018-02-20T06:28:20.340Z,-3.10
2018-02-20T06:30:47.974Z,-3.20
2018-02-20T06:33:15.842Z,-3.20
2018-02-20T06:35:43.476Z,-3.20
2018-02-20T06:38:11.095Z,-3.20
2018-02-20T06:40:38.668Z,-3.10
2018-02-20T06:43:06.323Z,-3.00
2018-02-20T06:45:34.679Z,-2.90
2018-02-20T06:48:02.426Z,-2.80
2018-02-20T06:50:30.229Z,-2.80
2018-02-20T06:52:57.983Z,-2.70
2018-02-20T06:55:25.596Z,-2.70
2018-02-20T06:57:54.039Z,-2.60
2018-02-20T07:00:21.660Z,-2.60
2018-02-20T07:02:49.357Z,-2.70
2018-02-20T07:05:16.903Z,-2.70
2018-02-20T07:07:44.527Z,-2.50
2018-02-20T07:10:12.136Z,-2.50
2018-02-20T07:12:39.818Z,-2.50
2018-02-20T07:15:07.444Z,-2.40
2018-02-20T07:17:35.114Z,-2.40
2018-02-20T07:20:02.698Z,-2.30
2018-02-20T07:22:30.356Z,-2.20
2018-02-20T07:24:58.693Z,-2.30
2018-02-20T07:27:26.340Z,-2.30
2018-02-20T07:29:53.964Z,-2.10
2018-02-20T07:32:21.592Z,-2.00
2018-02-20T07:34:49.371Z,-1.90
2018-02-20T07:37:17.085Z,-1.90
2018-02-20T07:39:44.673Z,-1.90
2018-02-20T07:42:13.089Z,-1.80
2018-02-20T07:44:40.696Z,-1.80
2018-02-20T07:47:08.304Z,-1.80
2018-02-20T07:49:36.701Z,-1.50
2018-02-20T07:52:05.105Z,-1.40
2018-02-20T07:54:33.488Z,-1.30
2018-02-20T07:57:01.928Z,-1.30
2018-02-20T07:59:29.512Z,-1.30
2018-02-20T08:01:57.166Z,-1.40
2018-02-20T08:04:24.812Z,-1.10
2018-02-20T08:06:53.234Z,-0.90
2018-02-20T08:09:20.883Z,-1.00
2018-02-20T08:11:48.548Z,-0.70
2018-02-20T08:14:16.205Z,-0.70
2018-02-20T08:16:44.646Z,-1.00
2018-02-20T08:19:12.337Z,-1.00
2018-02-20T08:21:39.984Z,-0.90
2018-02-20T08:24:07.673Z,-0.60
2018-02-20T08:26:35.267Z,-0.50
2018-02-20T08:29:02.926Z,-0.70
2018-02-20T08:31:30.571Z,-0.50
2018-02-20T08:33:58.208Z,-0.40
2018-02-20T08:36:25.791Z,-0.50
2018-02-20T08:38:54.321Z,-0.20
2018-02-20T08:41:21.896Z,-0.30
2018-02-20T08:43:49.677Z,-0.10
2018-02-20T08:46:17.705Z,0.00
2018-02-20T08:48:45.404Z,0.00
2018-02-20T08:51:13.813Z,0.60
2018-02-20T08:53:41.443Z,0.50
2018-02-20T08:56:09.163Z,0.80
2018-02-20T08:58:36.861Z,0.90
2018-02-20T09:01:04.457Z,0.80
2018-02-20T09:03:32.062Z,0.90
2018-02-20T09:06:00.448Z,0.50
2018-02-20T09:08:28.851Z,0.60
2018-02-20T09:10:56.457Z,0.50
2018-02-20T09:13:24.061Z,0.50
2018-02-20T09:15:52.618Z,0.10
2018-02-20T09:18:20.275Z,0.10
2018-02-20T09:20:52.872Z,0.30
2018-02-20T09:23:20.494Z,0.10
2018-02-20T09:25:51.683Z,0.60
2018-02-20T09:28:20.129Z,0.90
2018-02-20T09:30:47.809Z,0.90
2018-02-20T09:33:16.951Z,0.90
2018-02-20T09:35:45.382Z,0.90
2018-02-20T09:38:12.984Z,0.90
2018-02-20T09:40:40.614Z,0.80
2018-02-20T09:43:08.226Z,0.80
2018-02-20T09:45:35.886Z,0.90
2018-02-20T09:48:03.494Z,0.70
2018-02-20T09:50:31.940Z,0.20
2018-02-20T09:52:59.573Z,0.20
2018-02-20T09:55:27.952Z,0.50
2018-02-20T09:57:55.615Z,0.50
2018-02-20T10:00:24.028Z,0.60
2018-02-20T10:02:52.466Z,0.40
2018-02-20T10:05:20.130Z,0.40
2018-02-20T10:07:47.755Z,0.70
2018-02-20T10:10:15.344Z,0.90
2018-02-20T10:12:43.732Z,0.90
2018-02-20T10:15:12.151Z,0.70
2018-02-20T10:17:39.816Z,0.70
2018-02-20T10:20:07.450Z,0.60
2018-02-20T10:22:35.801Z,0.90
2018-02-20T10:25:03.449Z,1.00
2018-02-20T10:27:31.034Z,0.90
2018-02-20T10:29:58.647Z,0.90
2018-02-20T10:32:26.282Z,1.20
2018-02-20T10:34:53.905Z,1.20
2018-02-20T10:37:21.548Z,2.00
2018-02-20T10:39:49.156Z,1.90
2018-02-20T10:42:16.760Z,2.00
2018-02-20T10:44:44.325Z,1.60
2018-02-20T10:47:11.953Z,1.50
2018-02-20T10:49:39.735Z,1.30
2018-02-20T10:52:07.347Z,1.00
2018-02-20T10:54:35.736Z,0.90
2018-02-20T10:57:04.193Z,1.00
2018-02-20T10:59:31.796Z,1.00
2018-02-20T11:01:59.444Z,0.90
2018-02-20T11:04:27.116Z,1.10
2018-02-20T11:06:54.747Z,1.10
2018-02-20T11:09:22.345Z,1.50
2018-02-20T11:11:50.004Z,1.40
2018-02-20T11:14:17.708Z,1.20
2018-02-20T11:16:45.355Z,0.90
2018-02-20T11:19:12.998Z,1.00
2018-02-20T11:21:40.595Z,1.10
2018-02-20T11:24:08.189Z,1.20
2018-02-20T11:26:35.817Z,1.50
2018-02-20T11:29:03.467Z,1.60
2018-02-20T11:31:31.862Z,1.50
2018-02-20T11:33:59.524Z,1.50
2018-02-20T11:36:27.893Z,1.70
2018-02-20T11:38:55.490Z,1.70
2018-02-20T11:41:23.201Z,1.70
2018-02-20T11:43:50.827Z,1.60
2018-02-20T11:46:18.429Z,1.80
2018-02-20T11:48:46.813Z,2.10
2018-02-20T11:51:15.199Z,2.30
2018-02-20T11:53:42.782Z,2.30
2018-02-20T11:56:11.212Z,2.80
2018-02-20T11:58:38.839Z,2.80
2018-02-20T12:01:07.237Z,2.20
2018-02-20T12:03:35.601Z,2.30
2018-02-20T12:06:03.220Z,2.30
2018-02-20T12:08:31.002Z,2.20
2018-02-20T12:10:58.644Z,1.90
2018-02-20T12:13:26.233Z,1.90
2018-02-20T12:15:54.618Z,1.70
2018-02-20T12:18:22.964Z,2.00
2018-02-20T12:20:50.611Z,2.00
2018-02-20T12:23:18.216Z,1.60
2018-02-20T12:25:45.828Z,1.70
2018-02-20T12:28:13.455Z,1.70
2018-02-20T12:30:41.072Z,2.30
2018-02-20T12:33:09.587Z,2.10
2018-02-20T12:35:37.165Z,2.10
2018-02-20T12:38:04.817Z,1.90
2018-02-20T12:40:33.246Z,2.60
2018-02-20T12:43:00.874Z,2.50
2018-02-20T12:45:29.270Z,2.70
2018-02-20T12:47:57.759Z,2.70
2018-02-20T12:50:25.306Z,2.70
2018-02-20T12:52:52.924Z,2.50
2018-02-20T12:55:20.522Z,2.70
2018-02-20T12:57:48.205Z,2.20
2018-02-20T13:00:15.859Z,2.50
2018-02-20T13:02:43.473Z,2.60
2018-02-20T13:05:11.211Z,2.30
2018-02-20T13:07:38.873Z,2.10
2018-02-20T13:10:06.560Z,2.30
2018-02-20T13:12:34.213Z,2.30
2018-02-20T13:15:01.846Z,2.60
2018-02-20T13:17:30.253Z,3.20
2018-02-20T13:19:57.861Z,3.20
2018-02-20T13:22:25.650Z,2.90
2018-02-20T13:24:53.300Z,2.50
2018-02-20T13:27:20.934Z,2.30
2018-02-20T13:29:48.552Z,2.70
2018-02-20T13:32:16.185Z,2.70
2018-02-20T13:34:43.834Z,2.60
2018-02-20T13:37:11.450Z,2.60
2018-02-20T13:39:39.837Z,3.40
2018-02-20T13:42:08.255Z,3.90
2018-02-20T13:44:35.878Z,3.80
2018-02-20T13:47:03.519Z,3.30
2018-02-20T13:49:31.145Z,3.10
2018-02-20T13:51:58.736Z,2.50
2018-02-20T13:54:27.094Z,2.80
2018-02-20T13:56:55.512Z,3.00
2018-02-20T13:59:23.938Z,2.70
2018-02-20T14:01:51.570Z,2.70
2018-02-20T14:04:19.965Z,2.80
2018-02-20T14:06:48.349Z,2.90
2018-02-20T14:09:15.941Z,2.90
2018-02-20T14:11:44.350Z,3.10
2018-02-20T14:14:11.980Z,3.10
2018-02-20T14:16:39.612Z,2.60
2018-02-20T14:19:07.267Z,2.20
2018-02-20T14:21:34.933Z,2.40
2018-02-20T14:24:02.576Z,2.50
2018-02-20T14:26:30.158Z,2.10
2018-02-20T14:29:00.501Z,2.30
2018-02-20T14:31:28.154Z,2.20
2018-02-20T14:33:55.887Z,2.30
2018-02-20T14:36:23.553Z,2.20
2018-02-20T14:38:51.179Z,2.10
2018-02-20T14:41:18.821Z,2.10
2018-02-20T14:43:46.455Z,2.10
2018-02-20T14:46:14.069Z,1.90
2018-02-20T14:48:41.687Z,2.10
2018-02-20T14:51:10.049Z,1.60
2018-02-20T14:53:37.694Z,1.60
2018-02-20T14:56:05.373Z,1.80
2018-02-20T14:58:32.999Z,1.80
2018-02-20T15:01:02.424Z,2.10
2018-02-20T15:03:30.815Z,2.20
2018-02-20T15:05:58.417Z,2.20
2018-02-20T15:08:26.073Z,2.00
2018-02-20T15:10:53.648Z,1.80
2018-02-20T15:13:21.347Z,1.40
2018-02-20T15:15:48.960Z,1.10
2018-02-20T15:18:16.565Z,1.10
2018-02-20T15:20:44.174Z,1.10
2018-02-20T15:23:11.806Z,1.40
2018-02-20T15:25:39.417Z,1.40
2018-02-20T15:28:07.089Z,1.20
2018-02-20T15:30:34.785Z,1.30
2018-02-20T15:33:02.428Z,1.60
2018-02-20T15:35:30.044Z,1.40
2018-02-20T15:37:57.659Z,1.40
2018-02-20T15:40:25.315Z,1.30
2018-02-20T15:42:53.838Z,1.10
2018-02-20T15:45:21.458Z,1.10
2018-02-20T15:47:49.093Z,1.10
2018-02-20T15:50:16.716Z,1.00
2018-02-20T15:52:45.154Z,0.80
2018-02-20T15:55:12.848Z,0.80
2018-02-20T15:57:40.489Z,0.90
2018-02-20T16:00:08.084Z,0.80
2018-02-20T16:02:35.710Z,0.80
2018-02-20T16:05:04.068Z,0.50
2018-02-20T16:07:31.817Z,0.60
2018-02-20T16:09:59.434Z,0.30
2018-02-20T16:12:27.860Z,0.10
2018-02-20T16:14:55.458Z,0.10
2018-02-20T16:17:23.077Z,0.00
2018-02-20T16:19:51.468Z,0.10
2018-02-20T16:22:19.841Z,0.10
2018-02-20T16:24:47.505Z,0.10
2018-02-20T16:27:15.892Z,0.00
2018-02-20T16:29:43.512Z,0.00
2018-02-20T16:32:13.158Z,-0.20
2018-02-20T16:34:40.863Z,-0.20
2018-02-20T16:37:11.037Z,-0.50
2018-02-20T16:39:40.057Z,-0.50
2018-02-20T16:42:08.676Z,-0.50
2018-02-20T16:44:36.313Z,-0.50
2018-02-20T16:47:04.685Z,-0.60
2018-02-20T16:49:32.425Z,-0.60
2018-02-20T16:52:00.081Z,-0.70
2018-02-20T16:54:27.732Z,-0.70
2018-02-20T16:56:55.324Z,-0.70
2018-02-20T16:59:22.961Z,-0.70
2018-02-20T17:01:51.407Z,-0.90
2018-02-20T17:04:19.152Z,-0.90
2018-02-20T17:06:46.828Z,-1.00
2018-02-20T17:09:14.505Z,-1.10
2018-02-20T17:11:42.128Z,-1.10
2018-02-20T17:14:09.767Z,-1.10
2018-02-20T17:16:37.422Z,-1.20
2018-02-20T17:19:05.036Z,-1.20
2018-02-20T17:21:32.709Z,-1.20
2018-02-20T17:24:00.287Z,-1.20
2018-02-20T17:26:27.900Z,-1.30
2018-02-20T17:28:56.281Z,-1.20
2018-02-20T17:31:25.835Z,-1.20
2018-02-20T17:33:53.455Z,-1.30
2018-02-20T17:36:21.054Z,-1.20
2018-02-20T17:38:49.453Z,-1.20
2018-02-20T17:41:17.862Z,-1.20
2018-02-20T17:43:46.240Z,-1.20
2018-02-20T17:46:14.675Z,-1.30
2018-02-20T17:48:42.350Z,-1.30
2018-02-20T17:51:10.019Z,-1.40
2018-02-20T17:53:37.685Z,-1.50
2018-02-20T17:56:05.352Z,-1.60
2018-02-20T17:58:33.879Z,-1.60
2018-02-20T18:01:01.521Z,-1.70
2018-02-20T18:03:29.131Z,-1.70
2018-02-20T18:05:56.765Z,-1.80
2018-02-20T18:08:24.444Z,-1.80
2018-02-20T18:10:52.111Z,-1.80
2018-02-20T18:13:19.777Z,-1.90
2018-02-20T18:15:47.427Z,-2.00
2018-02-20T18:18:15.415Z,-2.10
2018-02-20T18:20:43.114Z,-2.10
2018-02-20T18:23:10.763Z,-2.20
2018-02-20T18:25:39.123Z,-2.20
2018-02-20T18:28:06.804Z,-2.20
2018-02-20T18:30:34.584Z,-2.20
2018-02-20T18:33:02.290Z,-2.20
2018-02-20T18:35:30.696Z,-2.20
2018-02-20T18:37:58.428Z,-2.20
2018-02-20T18:40:26.157Z,-2.20
2018-02-20T18:42:53.826Z,-2.20
2018-02-20T18:45:21.553Z,-2.10
2018-02-20T18:47:49.237Z,-2.00
2018-02-20T18:50:16.936Z,-2.00
2018-02-20T18:52:44.600Z,-1.90
2018-02-20T18:55:12.993Z,-1.90
2018-02-20T18:57:41.464Z,-2.00
2018-02-20T19:00:09.148Z,-2.00
2018-02-20T19:02:36.859Z,-2.10
2018-02-20T19:05:04.468Z,-2.10
2018-02-20T19:07:32.117Z,-2.20
2018-02-20T19:09:59.784Z,-2.20
2018-02-20T19:12:27.436Z,-2.20
2018-02-20T19:14:57.070Z,-2.20
2018-02-20T19:17:24.736Z,-2.20
2018-02-20T19:19:53.580Z,-2.30
2018-02-20T19:22:21.176Z,-2.30
2018-02-20T19:24:48.811Z,-2.30
2018-02-20T19:27:16.444Z,-2.30
2018-02-20T19:29:44.785Z,-2.30
2018-02-20T19:32:12.552Z,-2.30
2018-02-20T19:34:40.128Z,-2.20
2018-02-20T19:37:11.279Z,-2.20
2018-02-20T19:39:39.132Z,-2.20
2018-02-20T19:42:06.758Z,-2.10
2018-02-20T19:44:34.662Z,-2.00
2018-02-20T19:47:03.117Z,-2.00
2018-02-20T19:49:31.648Z,-1.90
2018-02-20T19:51:59.292Z,-1.90
2018-02-20T19:54:27.097Z,-1.90
2018-02-20T19:56:54.818Z,-1.90
2018-02-20T19:59:22.480Z,-1.80
2018-02-20T20:01:50.276Z,-1.90
2018-02-20T20:04:17.961Z,-1.90
2018-02-20T20:06:45.584Z,-1.80
2018-02-20T20:09:13.972Z,-1.80
2018-02-20T20:11:42.390Z,-1.90
2018-02-20T20:14:10.073Z,-1.90
2018-02-20T20:16:37.724Z,-1.90
2018-02-20T20:19:05.748Z,-1.90
2018-02-20T20:21:33.489Z,-1.80
2018-02-20T20:24:01.144Z,-1.80
2018-02-20T20:26:29.551Z,-1.60
2018-02-20T20:28:57.188Z,-1.70
2018-02-20T20:31:24.795Z,-1.70
2018-02-20T20:33:53.161Z,-1.60
2018-02-20T20:36:21.631Z,-1.70
2018-02-20T20:38:49.282Z,-1.70
2018-02-20T20:41:17.043Z,-1.80
2018-02-20T20:43:46.477Z,-1.90
2018-02-20T20:46:14.071Z,-1.90
2018-02-20T20:48:41.746Z,-1.90
2018-02-20T20:51:10.318Z,-2.00
2018-02-20T20:53:39.491Z,-2.10
2018-02-20T20:56:07.885Z,-2.00
2018-02-20T20:58:35.547Z,-2.10
2018-02-20T21:01:03.934Z,-2.00
2018-02-20T21:03:32.296Z,-1.90
2018-02-20T21:05:59.967Z,-1.90
2018-02-20T21:08:42.701Z,-1.90
2018-02-20T21:11:10.333Z,-1.90
2018-02-20T21:13:37.940Z,-1.90
2018-02-20T21:16:13.671Z,-1.90
2018-02-20T21:18:41.357Z,-1.90
2018-02-20T21:21:08.980Z,-1.90
2018-02-20T21:23:37.715Z,-1.90
2018-02-20T21:26:05.446Z,-1.90
2018-02-20T21:28:33.176Z,-1.80
2018-02-20T21:31:00.858Z,-1.80
2018-02-20T21:33:28.468Z,-1.80
2018-02-20T21:35:56.108Z,-1.80
2018-02-20T21:38:23.730Z,-1.80
2018-02-20T21:40:52.123Z,-1.80
2018-02-20T21:43:20.501Z,-1.80
2018-02-20T21:45:48.147Z,-1.80
2018-02-20T21:48:15.778Z,-1.80
2018-02-20T21:50:43.421Z,-1.80
2018-02-20T21:53:11.812Z,-1.70
2018-02-20T21:55:39.647Z,-1.80
2018-02-20T21:58:07.292Z,-1.80
2018-02-20T22:00:35.656Z,-1.70
2018-02-20T22:03:03.316Z,-1.70
2018-02-20T22:05:30.937Z,-1.70
2018-02-20T22:07:58.630Z,-1.70
2018-02-20T22:10:26.228Z,-1.60
2018-02-20T22:12:53.860Z,-1.60
2018-02-20T22:15:21.460Z,-1.60
2018-02-20T22:17:49.118Z,-1.60
2018-02-20T22:20:16.821Z,-1.60
2018-02-20T22:22:44.421Z,-1.60
2018-02-20T22:25:12.049Z,-1.60
2018-02-20T22:27:39.702Z,-1.60
2018-02-20T22:30:07.336Z,-1.60
2018-02-20T22:32:35.000Z,-1.70
2018-02-20T22:35:02.641Z,-1.60
2018-02-20T22:37:30.246Z,-1.70
2018-02-20T22:39:58.636Z,-1.70
2018-02-20T22:42:26.296Z,-1.70
2018-02-20T22:44:53.934Z,-1.70
2018-02-20T22:47:21.577Z,-1.60
2018-02-20T22:49:50.018Z,-1.60
2018-02-20T22:52:17.684Z,-1.60
2018-02-20T22:54:45.302Z,-1.50
2018-02-20T22:57:13.046Z,-1.50
2018-02-20T22:59:40.708Z,-1.50
2018-02-20T23:02:08.369Z,-1.50
2018-02-20T23:04:35.988Z,-1.60
2018-02-20T23:07:03.651Z,-1.60
2018-02-20T23:09:31.269Z,-1.60
2018-02-20T23:11:59.747Z,-1.60
2018-02-20T23:14:27.343Z,-1.60
2018-02-20T23:16:55.775Z,-1.60
2018-02-20T23:19:23.444Z,-1.60
2018-02-20T23:21:51.075Z,-1.60
2018-02-20T23:24:19.512Z,-1.60
2018-02-20T23:26:47.148Z,-1.60
2018-02-20T23:29:15.558Z,-1.60
2018-02-20T23:31:43.264Z,-1.60
2018-02-20T23:34:10.875Z,-1.60
2018-02-20T23:36:39.265Z,-1.50
2018-02-20T23:39:07.631Z,-1.50
2018-02-20T23:41:35.236Z,-1.50
2018-02-20T23:44:02.948Z,-1.50
2018-02-20T23:46:30.629Z,-1.50
2018-02-20T23:48:58.294Z,-1.50
2018-02-20T23:51:31.827Z,-1.50
2018-02-20T23:53:59.430Z,-1.50
2018-02-20T23:56:27.016Z,-1.50
2018-02-20T23:58:55.433Z,-1.50
